createdAt,value
2018-05-09T00:00:19.340Z,6.80
2018-05-09T00:02:46.748Z,6.20
2018-05-09T00:05:14.169Z,7.00
2018-05-09T00:07:41.682Z,7.13
2018-05-09T00:10:09.211Z,6.77
2018-05-09T00:12:36.564Z,6.33
2018-05-09T00:15:03.991Z,6.73
2018-05-09T00:17:31.458Z,7.07
2018-05-09T00:19:58.916Z,6.80
2018-05-09T00:22:26.329Z,6.67
2018-05-09T00:24:53.774Z,6.70
2018-05-09T00:27:21.198Z,6.90
2018-05-09T00:29:49.421Z,6.70
2018-05-09T00:32:16.873Z,6.40
2018-05-09T00:34:44.368Z,7.33
2018-05-09T00:37:11.778Z,7.23
2018-05-09T00:39:39.185Z,6.50
2018-05-09T00:42:06.644Z,6.77
2018-05-09T00:44:34.108Z,6.77
2018-05-09T00:47:02.289Z,7.00
2018-05-09T00:49:30.496Z,6.80
2018-05-09T00:51:57.964Z,7.00
2018-05-09T00:54:34.132Z,7.37
2018-05-09T00:57:01.609Z,7.00
2018-05-09T00:59:29.018Z,6.93
2018-05-09T01:01:57.194Z,7.97
2018-05-09T01:04:25.391Z,6.60
2018-05-09T01:06:53.825Z,7.70
2018-05-09T01:09:21.264Z,6.83
2018-05-09T01:11:48.662Z,7.33
2018-05-09T01:14:16.081Z,7.00
2018-05-09T01:16:44.256Z,7.57
2018-05-09T01:19:12.452Z,7.23
2018-05-09T01:21:40.636Z,6.70
2018-05-09T01:24:08.824Z,7.37
2018-05-09T01:26:37.005Z,7.40
2018-05-09T01:29:05.182Z,7.03
2018-05-09T01:31:32.681Z,7.37
2018-05-09T01:34:00.094Z,7.90
2018-05-09T01:36:27.613Z,6.93
2018-05-09T01:38:55.074Z,8.00
2018-05-09T01:41:23.467Z,7.63
2018-05-09T01:43:50.890Z,7.57
2018-05-09T01:46:18.420Z,7.90
2018-05-09T01:48:45.883Z,7.23
2018-05-09T01:51:13.363Z,7.40
2018-05-09T01:53:40.760Z,7.50
2018-05-09T01:56:08.180Z,7.97
2018-05-09T01:58:35.604Z,7.90
2018-05-09T02:01:03.018Z,7.60
2018-05-09T02:03:30.420Z,7.87
2018-05-09T02:05:57.843Z,7.60
2018-05-09T02:08:26.029Z,7.67
2018-05-09T02:10:54.925Z,7.97
2018-05-09T02:13:24.781Z,8.23
2018-05-09T02:15:52.205Z,7.77
2018-05-09T02:18:19.644Z,7.87
2018-05-09T02:20:47.064Z,7.57
2018-05-09T02:23:15.248Z,7.83
2018-05-09T02:25:42.663Z,7.77
2018-05-09T02:28:10.089Z,7.73
2018-05-09T02:30:38.290Z,8.10
2018-05-09T02:33:05.696Z,8.57
2018-05-09T02:35:33.213Z,8.50
2018-05-09T02:38:00.634Z,8.47
2018-05-09T02:40:28.053Z,8.10
2018-05-09T02:42:55.456Z,8.33
2018-05-09T02:45:22.888Z,7.90
2018-05-09T02:47:50.304Z,8.07
2018-05-09T02:50:17.724Z,7.93
2018-05-09T02:52:45.128Z,8.97
2018-05-09T02:55:12.562Z,7.90
2018-05-09T02:57:39.972Z,7.73
2018-05-09T03:00:07.396Z,8.47
2018-05-09T03:02:35.580Z,7.93
2018-05-09T03:05:02.992Z,7.90
2018-05-09T03:07:30.420Z,8.97
2018-05-09T03:09:57.842Z,8.40
2018-05-09T03:12:25.273Z,9.00
2018-05-09T03:14:52.717Z,8.57
2018-05-09T03:17:20.116Z,8.37
2018-05-09T03:19:47.543Z,9.30
2018-05-09T03:22:15.744Z,8.70
2018-05-09T03:24:43.156Z,8.47
2018-05-09T03:27:10.573Z,9.00
2018-05-09T03:29:37.992Z,9.40
2018-05-09T03:32:05.415Z,9.33
2018-05-09T03:34:32.889Z,10.07
2018-05-09T03:37:00.301Z,9.00
2018-05-09T03:39:27.720Z,8.43
2018-05-09T03:41:56.097Z,8.48
2018-05-09T03:44:25.258Z,9.37
2018-05-09T03:46:52.676Z,9.40
2018-05-09T03:49:20.849Z,8.87
2018-05-09T03:51:49.040Z,8.47
2018-05-09T03:54:16.442Z,8.83
2018-05-09T03:56:43.854Z,9.07
2018-05-09T03:59:11.374Z,8.67
2018-05-09T04:01:50.550Z,9.50
2018-05-09T04:04:29.812Z,9.70
2018-05-09T04:07:09.113Z,8.80
2018-05-09T04:12:36.576Z,8.87
2018-05-09T04:15:04.000Z,9.27
2018-05-09T04:17:31.429Z,9.20
2018-05-09T04:19:59.598Z,10.00
2018-05-09T04:22:27.018Z,9.40
2018-05-09T04:24:54.439Z,9.40
2018-05-09T04:27:21.965Z,9.10
2018-05-09T04:29:49.374Z,9.53
2018-05-09T04:32:16.983Z,8.80
2018-05-09T04:34:45.140Z,9.60
2018-05-09T04:37:12.638Z,9.98
2018-05-09T04:39:40.049Z,9.73
2018-05-09T04:42:07.550Z,9.93
2018-05-09T04:44:34.885Z,10.23
2018-05-09T04:47:02.333Z,10.20
2018-05-09T04:49:29.736Z,10.77
2018-05-09T04:51:57.247Z,11.27
2018-05-09T04:54:24.727Z,10.90
2018-05-09T04:56:52.165Z,11.17
2018-05-09T04:59:20.343Z,12.90
2018-05-09T05:01:48.544Z,10.97
2018-05-09T05:04:15.966Z,10.70
2018-05-09T05:06:43.502Z,10.90
2018-05-09T05:09:10.909Z,10.17
2018-05-09T05:11:38.408Z,11.30
2018-05-09T05:14:05.835Z,11.97
2018-05-09T05:16:33.260Z,10.60
2018-05-09T05:19:00.690Z,11.33
2018-05-09T05:21:28.148Z,10.90
2018-05-09T05:23:55.567Z,10.20
2018-05-09T05:26:22.980Z,11.50
2018-05-09T05:28:50.415Z,10.60
2018-05-09T05:31:17.825Z,11.50
2018-05-09T05:33:45.329Z,10.70
2018-05-09T05:36:12.765Z,10.67
2018-05-09T05:38:40.289Z,11.20
2018-05-09T05:41:07.709Z,10.73
2018-05-09T05:43:35.169Z,11.00
2018-05-09T05:46:02.645Z,11.43
2018-05-09T05:48:30.084Z,10.60
2018-05-09T05:50:58.355Z,11.57
2018-05-09T05:53:25.777Z,10.73
2018-05-09T05:55:53.203Z,10.43
2018-05-09T05:58:21.375Z,12.67
2018-05-09T06:00:48.805Z,10.83
2018-05-09T06:03:16.373Z,11.30
2018-05-09T06:05:43.918Z,11.00
2018-05-09T06:08:11.356Z,10.30
2018-05-09T06:10:38.777Z,9.73
2018-05-09T06:13:06.209Z,10.53
2018-05-09T06:15:34.409Z,10.40
2018-05-09T06:18:01.845Z,10.07
2018-05-09T06:20:29.280Z,9.90
2018-05-09T06:22:56.690Z,9.97
2018-05-09T06:25:24.866Z,9.50
2018-05-09T06:27:52.281Z,10.03
2018-05-09T06:30:19.699Z,8.50
2018-05-09T06:32:47.217Z,9.37
2018-05-09T06:35:14.620Z,8.73
2018-05-09T06:37:42.052Z,8.90
2018-05-09T06:40:09.452Z,9.30
2018-05-09T06:42:36.868Z,10.93
2018-05-09T06:45:04.276Z,9.20
2018-05-09T06:47:31.709Z,8.67
2018-05-09T06:49:59.126Z,8.73
2018-05-09T06:52:26.536Z,8.40
2018-05-09T06:54:54.713Z,9.27
2018-05-09T06:57:22.920Z,9.10
2018-05-09T06:59:51.247Z,7.80
2018-05-09T07:02:18.646Z,8.90
2018-05-09T07:04:46.060Z,10.73
2018-05-09T07:07:13.642Z,11.90
2018-05-09T07:09:41.203Z,16.20
2018-05-09T07:12:08.608Z,15.60
2018-05-09T07:14:36.122Z,14.67
2018-05-09T07:17:03.541Z,13.60
2018-05-09T07:19:31.056Z,9.98
2018-05-09T07:21:59.823Z,10.73
2018-05-09T07:24:27.348Z,9.47
2018-05-09T07:26:54.764Z,8.70
2018-05-09T07:29:22.271Z,8.70
2018-05-09T07:31:49.743Z,7.50
2018-05-09T07:34:17.157Z,7.57
2018-05-09T07:36:44.597Z,7.37
2018-05-09T07:39:12.056Z,7.40
2018-05-09T07:41:39.520Z,7.30
2018-05-09T07:44:06.935Z,7.40
2018-05-09T07:46:34.341Z,7.20
2018-05-09T07:49:02.516Z,7.43
2018-05-09T07:51:30.688Z,6.90
2018-05-09T07:53:58.112Z,6.70
2018-05-09T07:56:25.564Z,6.63
2018-05-09T07:58:53.728Z,6.87
2018-05-09T08:01:21.900Z,6.20
2018-05-09T08:03:50.091Z,7.00
2018-05-09T08:06:18.264Z,7.40
2018-05-09T08:08:45.808Z,6.60
2018-05-09T08:11:13.217Z,6.90
2018-05-09T08:13:42.173Z,7.10
2018-05-09T08:16:09.723Z,6.30
2018-05-09T08:18:37.133Z,6.13
2018-05-09T08:21:04.658Z,7.50
2018-05-09T08:23:32.069Z,7.33
2018-05-09T08:26:00.883Z,6.97
2018-05-09T08:28:29.991Z,7.03
2018-05-09T08:30:57.415Z,6.90
2018-05-09T08:33:24.826Z,7.07
2018-05-09T08:35:52.238Z,7.80
2018-05-09T08:38:19.705Z,6.60
2018-05-09T08:40:47.128Z,7.40
2018-05-09T08:43:14.604Z,6.63
2018-05-09T08:45:41.974Z,7.00
2018-05-09T08:48:10.232Z,7.43
2018-05-09T08:50:37.641Z,7.17
2018-05-09T08:53:05.145Z,6.40
2018-05-09T08:55:32.547Z,7.17
2018-05-09T08:58:01.499Z,7.13
2018-05-09T09:00:30.601Z,6.83
2018-05-09T09:02:58.088Z,6.63
2018-05-09T09:05:25.508Z,8.00
2018-05-09T09:07:53.696Z,7.53
2018-05-09T09:10:21.215Z,7.67
2018-05-09T09:12:48.632Z,7.07
2018-05-09T09:15:16.058Z,7.60
2018-05-09T09:17:43.530Z,7.07
2018-05-09T09:20:10.925Z,6.70
2018-05-09T09:22:38.334Z,6.83
2018-05-09T09:25:06.534Z,6.90
2018-05-09T09:27:33.962Z,8.30
2018-05-09T09:30:01.465Z,7.80
2018-05-09T09:32:28.940Z,6.20
2018-05-09T09:34:56.377Z,7.13
2018-05-09T09:37:23.789Z,6.67
2018-05-09T09:39:51.196Z,6.13
2018-05-09T09:42:20.131Z,6.03
2018-05-09T09:44:48.313Z,7.10
2018-05-09T09:47:16.504Z,6.67
2018-05-09T09:49:44.689Z,7.27
2018-05-09T09:52:12.874Z,6.63
2018-05-09T09:54:41.102Z,7.03
2018-05-09T09:57:08.645Z,7.13
2018-05-09T09:59:36.075Z,7.27
2018-05-09T10:02:03.477Z,7.10
2018-05-09T10:04:31.825Z,7.40
2018-05-09T10:06:59.251Z,6.13
2018-05-09T10:09:26.675Z,6.27
2018-05-09T10:11:54.090Z,6.50
2018-05-09T10:14:21.514Z,6.40
2018-05-09T10:16:48.941Z,5.57
2018-05-09T10:19:16.397Z,7.13
2018-05-09T10:21:43.832Z,7.13
2018-05-09T10:24:12.062Z,6.77
2018-05-09T10:26:39.484Z,6.90
2018-05-09T10:29:07.664Z,7.00
2018-05-09T10:31:35.865Z,6.53
2018-05-09T10:34:04.045Z,6.73
2018-05-09T10:36:33.152Z,7.13
2018-05-09T10:39:02.255Z,6.47
2018-05-09T10:41:30.434Z,6.50
2018-05-09T10:43:58.612Z,6.37
2018-05-09T10:46:26.027Z,8.50
2018-05-09T10:48:53.457Z,7.03
2018-05-09T10:51:20.947Z,7.10
2018-05-09T10:53:48.368Z,6.40
2018-05-09T10:56:15.795Z,6.03
2018-05-09T10:58:43.220Z,6.23
2018-05-09T11:01:10.746Z,6.67
2018-05-09T11:03:38.152Z,6.80
2018-05-09T11:06:06.345Z,6.63
2018-05-09T11:08:33.769Z,6.80
2018-05-09T11:11:01.193Z,6.50
2018-05-09T11:13:29.373Z,5.67
2018-05-09T11:15:56.816Z,6.00
2018-05-09T11:18:24.246Z,5.60
2018-05-09T11:20:51.719Z,6.30
2018-05-09T11:23:19.872Z,6.30
2018-05-09T11:25:48.114Z,5.80
2018-05-09T11:28:15.564Z,6.53
2018-05-09T11:30:43.037Z,6.10
2018-05-09T11:33:10.455Z,6.00
2018-05-09T11:35:37.859Z,5.63
2018-05-09T11:38:05.354Z,5.80
2018-05-09T11:40:34.297Z,5.57
2018-05-09T11:43:01.718Z,5.73
2018-05-09T11:45:29.137Z,6.20
2018-05-09T11:47:57.348Z,5.60
2018-05-09T11:50:24.826Z,5.87
2018-05-09T11:52:52.989Z,6.77
2018-05-09T11:55:21.177Z,6.33
2018-05-09T11:57:49.373Z,6.30
2018-05-09T12:00:16.864Z,6.40
2018-05-09T12:02:44.302Z,6.03
2018-05-09T12:05:12.496Z,5.90
2018-05-09T12:07:39.915Z,5.90
2018-05-09T12:10:07.346Z,6.17
2018-05-09T12:12:35.691Z,6.27
2018-05-09T12:15:04.037Z,6.23
2018-05-09T12:17:31.426Z,7.07
2018-05-09T12:19:58.860Z,6.80
2018-05-09T12:22:26.272Z,6.13
2018-05-09T12:24:53.788Z,6.07
2018-05-09T12:27:21.237Z,6.23
2018-05-09T12:29:48.641Z,6.00
2018-05-09T12:32:16.052Z,6.27
2018-05-09T12:34:43.484Z,7.10
2018-05-09T12:37:10.956Z,5.87
2018-05-09T12:39:38.377Z,6.80
2018-05-09T12:42:06.557Z,5.83
2018-05-09T12:44:35.489Z,6.33
2018-05-09T12:47:02.904Z,6.43
2018-05-09T12:49:30.323Z,6.63
2018-05-09T12:51:57.730Z,6.40
2018-05-09T12:54:25.225Z,6.70
2018-05-09T12:56:52.566Z,6.47
2018-05-09T12:59:20.001Z,6.97
2018-05-09T13:01:48.176Z,7.00
2018-05-09T13:04:15.771Z,6.10
2018-05-09T13:06:43.192Z,5.63
2018-05-09T13:09:10.610Z,6.10
2018-05-09T13:11:38.029Z,6.33
2018-05-09T13:14:06.257Z,6.80
2018-05-09T13:16:33.668Z,6.60
2018-05-09T13:19:01.207Z,6.50
2018-05-09T13:21:28.653Z,5.80
2018-05-09T13:23:56.126Z,5.60
2018-05-09T13:26:24.288Z,5.93
2018-05-09T13:28:52.529Z,5.73
2018-05-09T13:31:19.977Z,6.73
2018-05-09T13:33:47.406Z,5.93
2018-05-09T13:36:15.576Z,6.30
2018-05-09T13:38:43.811Z,5.73
2018-05-09T13:41:11.284Z,7.60
2018-05-09T13:43:38.739Z,5.83
2018-05-09T13:46:06.243Z,6.50
2018-05-09T13:48:33.680Z,6.13
2018-05-09T13:51:01.115Z,5.80
2018-05-09T13:53:29.447Z,6.33
2018-05-09T13:55:57.624Z,6.53
2018-05-09T13:58:25.037Z,5.40
2018-05-09T14:00:52.560Z,5.30
2018-05-09T14:03:19.981Z,5.73
2018-05-09T14:05:47.400Z,5.80
2018-05-09T14:08:14.821Z,6.07
2018-05-09T14:10:43.773Z,5.90
2018-05-09T14:13:11.200Z,6.60
2018-05-09T14:15:38.721Z,5.87
2018-05-09T14:18:07.194Z,5.87
2018-05-09T14:20:34.676Z,6.53
2018-05-09T14:23:02.084Z,6.00
2018-05-09T14:25:29.523Z,6.23
2018-05-09T14:27:56.935Z,6.33
2018-05-09T14:30:24.450Z,6.43
2018-05-09T14:32:52.628Z,6.03
2018-05-09T14:35:20.111Z,6.00
2018-05-09T14:37:47.523Z,6.20
2018-05-09T14:40:15.048Z,6.30
2018-05-09T14:42:42.525Z,5.60
2018-05-09T14:45:09.935Z,6.23
2018-05-09T14:47:37.363Z,7.00
2018-05-09T14:50:04.820Z,6.40
2018-05-09T14:52:32.278Z,6.23
2018-05-09T14:54:59.766Z,6.80
2018-05-09T14:57:27.180Z,7.10
2018-05-09T14:59:54.598Z,7.50
2018-05-09T15:02:22.025Z,7.07
2018-05-09T15:04:49.437Z,6.00
2018-05-09T15:07:16.847Z,6.60
2018-05-09T15:09:44.838Z,6.53
2018-05-09T15:12:12.301Z,6.47
2018-05-09T15:14:39.826Z,5.83
2018-05-09T15:17:07.608Z,6.00
2018-05-09T15:19:35.078Z,6.73
2018-05-09T15:22:02.525Z,6.20
2018-05-09T15:24:29.938Z,7.00
2018-05-09T15:26:58.187Z,6.30
2018-05-09T15:29:25.635Z,7.00
2018-05-09T15:31:53.032Z,7.10
2018-05-09T15:34:20.432Z,6.87
2018-05-09T15:36:47.963Z,5.93
2018-05-09T15:39:15.368Z,6.43
2018-05-09T15:41:42.810Z,6.03
2018-05-09T15:44:10.366Z,6.83
2018-05-09T15:46:38.929Z,6.37
2018-05-09T15:49:08.056Z,6.40
2018-05-09T15:51:35.485Z,6.73
2018-05-09T15:54:02.914Z,7.10
2018-05-09T15:56:30.383Z,7.00
2018-05-09T15:58:58.250Z,7.60
2018-05-09T16:01:26.424Z,7.47
2018-05-09T16:03:54.615Z,6.10
2018-05-09T16:06:22.053Z,6.70
2018-05-09T16:08:50.236Z,6.40
2018-05-09T16:11:17.749Z,6.80
2018-05-09T16:13:45.163Z,7.40
2018-05-09T16:16:12.710Z,7.73
2018-05-09T16:18:40.135Z,7.90
2018-05-09T16:21:09.263Z,7.40
2018-05-09T16:23:36.695Z,7.50
2018-05-09T16:26:04.888Z,7.13
2018-05-09T16:28:33.068Z,7.00
2018-05-09T16:31:01.261Z,7.60
2018-05-09T16:33:29.601Z,8.47
2018-05-09T16:35:57.041Z,7.37
2018-05-09T16:38:24.448Z,6.87
2018-05-09T16:40:51.884Z,7.03
2018-05-09T16:43:19.291Z,7.70
2018-05-09T16:45:46.727Z,8.07
2018-05-09T16:48:14.180Z,7.77
2018-05-09T16:50:41.653Z,7.67
2018-05-09T16:53:10.273Z,7.25
2018-05-09T16:55:39.422Z,7.77
2018-05-09T16:58:06.920Z,7.60
2018-05-09T17:00:34.334Z,8.10
2018-05-09T17:03:01.768Z,8.20
2018-05-09T17:05:29.211Z,8.53
2018-05-09T17:07:56.583Z,8.30
2018-05-09T17:10:24.063Z,7.53
2018-05-09T17:12:51.477Z,9.10
2018-05-09T17:15:18.897Z,7.70
2018-05-09T17:17:47.059Z,7.57
2018-05-09T17:20:15.284Z,8.33
2018-05-09T17:22:42.684Z,8.43
2018-05-09T17:25:10.135Z,7.63
2018-05-09T17:27:37.554Z,8.70
2018-05-09T17:30:05.788Z,8.23
2018-05-09T17:32:33.245Z,13.80
2018-05-09T17:35:00.664Z,8.43
2018-05-09T17:37:28.081Z,8.67
2018-05-09T17:39:55.494Z,8.60
2018-05-09T17:42:22.922Z,8.97
2018-05-09T17:44:50.353Z,8.10
2018-05-09T17:47:18.581Z,8.60
2018-05-09T17:49:46.016Z,8.73
2018-05-09T17:52:14.321Z,8.27
2018-05-09T17:54:41.780Z,9.30
2018-05-09T17:57:09.208Z,8.70
2018-05-09T17:59:36.625Z,12.20
2018-05-09T18:02:04.090Z,9.67
2018-05-09T18:04:31.522Z,9.57
2018-05-09T18:06:58.955Z,8.20
2018-05-09T18:09:26.401Z,9.40
2018-05-09T18:11:53.800Z,8.97
2018-05-09T18:14:21.265Z,8.23
2018-05-09T18:16:48.706Z,10.45
2018-05-09T18:19:16.146Z,8.50
2018-05-09T18:21:44.321Z,8.43
2018-05-09T18:24:11.748Z,8.67
2018-05-09T18:26:39.230Z,9.17
2018-05-09T18:29:06.626Z,10.40
2018-05-09T18:31:34.814Z,10.13
2018-05-09T18:34:02.328Z,12.20
2018-05-09T18:36:29.741Z,10.37
2018-05-09T18:38:57.153Z,10.83
2018-05-09T18:41:24.568Z,8.87
2018-05-09T18:43:52.198Z,9.60
2018-05-09T18:46:20.455Z,8.80
2018-05-09T18:48:47.791Z,8.27
2018-05-09T18:51:15.233Z,9.17
2018-05-09T18:53:42.778Z,8.90
2018-05-09T18:56:11.901Z,9.20
2018-05-09T18:58:39.368Z,9.40
2018-05-09T19:01:07.529Z,9.13
2018-05-09T19:03:35.840Z,9.90
2018-05-09T19:06:04.335Z,9.93
2018-05-09T19:08:32.530Z,9.80
2018-05-09T19:11:00.092Z,10.50
2018-05-09T19:13:28.285Z,10.33
2018-05-09T19:15:55.732Z,15.23
2018-05-09T19:18:23.910Z,9.70
2018-05-09T19:20:52.120Z,10.97
2018-05-09T19:23:20.304Z,10.97
2018-05-09T19:25:47.736Z,13.17
2018-05-09T19:28:15.194Z,11.37
2018-05-09T19:30:42.630Z,11.30
2018-05-09T19:33:10.101Z,11.70
2018-05-09T19:35:37.534Z,11.73
2018-05-09T19:38:05.021Z,10.83
2018-05-09T19:40:32.476Z,10.80
2018-05-09T19:42:59.960Z,11.67
2018-05-09T19:45:27.440Z,10.80
2018-05-09T19:47:54.872Z,11.10
2018-05-09T19:50:22.283Z,12.73
2018-05-09T19:52:49.727Z,11.00
2018-05-09T19:55:17.214Z,11.20
2018-05-09T19:57:44.657Z,12.27
2018-05-09T20:00:13.589Z,10.85
2018-05-09T20:02:41.044Z,12.43
2018-05-09T20:05:08.500Z,10.90
2018-05-09T20:07:35.934Z,12.43
2018-05-09T20:10:03.449Z,11.73
2018-05-09T20:12:30.866Z,13.40
2018-05-09T20:14:58.280Z,11.57
2018-05-09T20:17:25.711Z,12.10
2018-05-09T20:19:53.226Z,10.70
2018-05-09T20:22:20.647Z,11.40
2018-05-09T20:24:48.851Z,11.80
2018-05-09T20:27:16.268Z,10.80
2018-05-09T20:29:43.701Z,11.50
2018-05-09T20:32:23.009Z,10.70
2018-05-09T20:34:50.530Z,11.03
2018-05-09T20:37:17.949Z,11.50
2018-05-09T20:39:45.394Z,11.90
2018-05-09T20:42:14.367Z,10.40
2018-05-09T20:44:41.800Z,10.27
2018-05-09T20:47:09.233Z,10.40
2018-05-09T20:49:36.640Z,11.43
2018-05-09T20:52:04.861Z,10.57
2018-05-09T20:54:32.265Z,11.37
2018-05-09T20:56:59.701Z,11.23
2018-05-09T20:59:27.172Z,11.57
2018-05-09T21:01:54.602Z,10.60
2018-05-09T21:04:22.791Z,11.05
2018-05-09T21:06:50.964Z,10.77
2018-05-09T21:09:18.525Z,11.90
2018-05-09T21:11:57.917Z,10.60
2018-05-09T21:14:25.395Z,10.40
2018-05-09T21:16:52.814Z,11.87
2018-05-09T21:19:20.254Z,11.90
2018-05-09T21:21:47.700Z,12.03
2018-05-09T21:24:15.150Z,12.00
2018-05-09T21:26:42.579Z,12.60
2018-05-09T21:29:10.007Z,13.53
2018-05-09T21:31:37.470Z,14.03
2018-05-09T21:34:05.637Z,13.83
2018-05-09T21:36:33.820Z,12.40
2018-05-09T21:39:01.313Z,14.20
2018-05-09T21:41:28.740Z,11.50
2018-05-09T21:43:56.173Z,13.00
2018-05-09T21:46:23.584Z,12.57
2018-05-09T21:48:51.097Z,12.00
2018-05-09T21:51:18.540Z,12.17
2018-05-09T21:53:47.761Z,13.75
2018-05-09T21:56:15.199Z,12.23
2018-05-09T21:58:42.646Z,11.30
2018-05-09T22:01:10.881Z,12.73
2018-05-09T22:03:39.100Z,12.50
2018-05-09T22:06:06.521Z,12.87
2018-05-09T22:08:34.704Z,12.37
2018-05-09T22:11:02.889Z,12.27
2018-05-09T22:13:31.162Z,13.53
2018-05-09T22:15:59.277Z,12.30
2018-05-09T22:18:26.706Z,11.50
2018-05-09T22:20:54.335Z,13.00
2018-05-09T22:23:22.501Z,12.53
2018-05-09T22:25:50.720Z,12.67
2018-05-09T22:28:18.884Z,13.50
2018-05-09T22:30:46.310Z,13.27
2018-05-09T22:33:13.837Z,14.23
2018-05-09T22:35:41.312Z,15.60
2018-05-09T22:38:08.724Z,12.50
2018-05-09T22:40:36.910Z,12.60
2018-05-09T22:43:04.326Z,13.00
2018-05-09T22:45:31.772Z,13.60
2018-05-09T22:47:59.189Z,13.53
2018-05-09T22:50:26.607Z,13.25
2018-05-09T22:52:54.801Z,12.10
2018-05-09T22:55:22.234Z,12.20
2018-05-09T22:57:49.653Z,12.57
2018-05-09T23:00:17.110Z,12.73
2018-05-09T23:02:44.539Z,14.30
2018-05-09T23:05:12.716Z,14.70
2018-05-09T23:07:40.158Z,13.60
2018-05-09T23:10:07.593Z,13.43
2018-05-09T23:12:35.070Z,13.13
2018-05-09T23:15:02.528Z,13.03
2018-05-09T23:17:29.949Z,12.30
2018-05-09T23:19:57.370Z,13.43
2018-05-09T23:22:24.841Z,14.47
2018-05-09T23:24:52.256Z,13.60
2018-05-09T23:27:19.667Z,15.53
2018-05-09T23:29:47.089Z,15.83
2018-05-09T23:32:14.505Z,14.83
2018-05-09T23:34:41.932Z,14.30
2018-05-09T23:37:09.442Z,14.43
2018-05-09T23:39:36.857Z,15.40
2018-05-09T23:42:04.288Z,13.50
2018-05-09T23:44:31.701Z,14.57
2018-05-09T23:46:59.123Z,15.53
2018-05-09T23:49:26.548Z,16.40
2018-05-09T23:51:53.964Z,15.50
2018-05-09T23:54:21.385Z,14.67
2018-05-09T23:56:48.813Z,15.93
2018-05-09T23:59:16.261Z,16.20
